Terminal Aerodrome Forecast
Issued by NWS

Home | Current Version | Previous Version | Text Only | Print | Product List | Glossary On
Versions: 1 2 3 4 5 6 7 8 9 10 11 12
000
FTPA31 PHFO 291727
TAFHJH
TAF
PHJH 291727Z 2918/3018 06010KT P6SM FEW025 SCT045
     FM292000 07014G24KT P6SM FEW025 SCT045
     FM300600 07010KT P6SM FEW025 SCT045
      AMD NOT SKED 3004/3018=

USA.gov is the U.S. government's official web portal to all federal, state and local government web resources and services.